createdAt,value
2023-04-12T00:02:22.747Z,97070.22
2023-04-12T00:04:55.349Z,97067.91
2023-04-12T00:07:23.190Z,97062.13
2023-04-12T00:09:50.863Z,97051.75
2023-04-12T00:12:20.731Z,97049.09
2023-04-12T00:14:48.571Z,97048.94
2023-04-12T00:17:16.052Z,97048.44
2023-04-12T00:19:44.778Z,97041.50
2023-04-12T00:22:12.997Z,97038.69
2023-04-12T00:24:40.810Z,97037.06
2023-04-12T00:27:08.588Z,97038.53
2023-04-12T00:29:41.143Z,97029.13
2023-04-12T00:32:10.097Z,97023.00
2023-04-12T00:34:37.640Z,97021.19
2023-04-12T00:37:05.186Z,97021.34
2023-04-12T00:39:32.677Z,97022.50
2023-04-12T00:42:04.398Z,97012.81
2023-04-12T00:44:32.952Z,97004.44
2023-04-12T00:47:02.701Z,97008.22
2023-04-12T00:49:30.789Z,97013.44
2023-04-12T00:52:03.175Z,97007.50
2023-04-12T00:54:32.256Z,96999.25
2023-04-12T00:57:00.236Z,97002.03
2023-04-12T00:59:27.788Z,97000.72
2023-04-12T01:01:56.150Z,97001.56
2023-04-12T01:04:26.418Z,96997.69
2023-04-12T01:07:10.137Z,96990.16
2023-04-12T01:09:46.615Z,96990.63
2023-04-12T01:12:27.099Z,96977.94
2023-04-12T01:15:06.432Z,96971.19
2023-04-12T01:17:38.179Z,96987.19
2023-04-12T01:20:14.320Z,96980.78
2023-04-12T01:23:10.446Z,96978.94
2023-04-12T01:25:51.107Z,96975.19
2023-04-12T01:28:22.055Z,96974.34
2023-04-12T01:30:51.473Z,96965.22
2023-04-12T01:33:23.193Z,96967.88
2023-04-12T01:35:50.986Z,96954.38
2023-04-12T01:38:18.709Z,96954.09
2023-04-12T01:40:46.252Z,96946.75
2023-04-12T01:43:15.880Z,96942.94
2023-04-12T01:45:44.868Z,96936.38
2023-04-12T01:48:13.333Z,96933.91
2023-04-12T01:50:45.936Z,96936.97
2023-04-12T01:53:15.210Z,96937.47
2023-04-12T01:55:45.819Z,96931.59
2023-04-12T01:58:13.719Z,96932.09
2023-04-12T02:00:44.828Z,96934.06
2023-04-12T02:03:13.796Z,96934.25
2023-04-12T02:05:41.588Z,96931.25
2023-04-12T02:08:09.164Z,96932.25
2023-04-12T02:10:39.748Z,96924.41
2023-04-12T02:13:07.614Z,96933.97
2023-04-12T02:15:37.123Z,96931.28
2023-04-12T02:18:06.055Z,96922.09
2023-04-12T02:20:35.538Z,96918.63
2023-04-12T02:23:03.089Z,96920.41
2023-04-12T02:25:30.921Z,96907.69
2023-04-12T02:27:58.450Z,96901.97
2023-04-12T02:30:26.002Z,96896.16
2023-04-12T02:32:56.188Z,96892.66
2023-04-12T02:35:29.029Z,96882.28
2023-04-12T02:38:03.631Z,96882.66
2023-04-12T02:40:31.189Z,96874.13
2023-04-12T02:42:59.320Z,96868.47
2023-04-12T02:45:27.893Z,96867.09
2023-04-12T02:47:56.639Z,96864.75
2023-04-12T02:50:30.410Z,96858.97
2023-04-12T02:53:10.408Z,96861.72
2023-04-12T02:55:40.413Z,96858.31
2023-04-12T02:58:10.064Z,96864.66
2023-04-12T03:00:45.768Z,96858.75
2023-04-12T03:03:17.894Z,96841.47
2023-04-12T03:05:48.641Z,96831.38
2023-04-12T03:08:18.128Z,96827.91
2023-04-12T03:10:52.778Z,96827.69
2023-04-12T03:13:21.106Z,96825.00
2023-04-12T03:15:56.643Z,96817.03
2023-04-12T03:18:27.940Z,96814.31
2023-04-12T03:20:57.035Z,96812.81
2023-04-12T03:23:25.068Z,96819.59
2023-04-12T03:26:04.915Z,96816.06
2023-04-12T03:28:35.883Z,96822.66
2023-04-12T03:31:06.403Z,96817.44
2023-04-12T03:33:42.714Z,96817.25
2023-04-12T03:36:22.176Z,96815.69
2023-04-12T03:38:55.361Z,96810.72
2023-04-12T03:41:23.369Z,96812.53
2023-04-12T03:43:50.967Z,96817.22
2023-04-12T03:46:19.726Z,96814.03
2023-04-12T03:48:54.549Z,96816.34
2023-04-12T03:51:27.104Z,96810.28
2023-04-12T03:54:02.705Z,96810.13
2023-04-12T03:56:35.600Z,96808.44
2023-04-12T03:59:07.754Z,96806.50
2023-04-12T04:01:36.931Z,96807.78
2023-04-12T04:04:06.585Z,96794.72
2023-04-12T04:06:35.593Z,96796.75
2023-04-12T04:09:03.661Z,96795.06
2023-04-12T04:11:36.052Z,96785.09
2023-04-12T04:14:07.457Z,96775.47
2023-04-12T04:16:35.883Z,96770.81
2023-04-12T04:19:15.641Z,96758.72
2023-04-12T04:21:47.508Z,96749.09
2023-04-12T04:24:15.279Z,96748.34
2023-04-12T04:26:47.204Z,96752.16
2023-04-12T04:29:23.595Z,96747.88
2023-04-12T04:31:51.393Z,96743.06
2023-04-12T04:34:19.447Z,96747.97
2023-04-12T04:36:50.044Z,96745.06
2023-04-12T04:39:24.410Z,96735.38
2023-04-12T04:41:54.778Z,96737.78
2023-04-12T04:44:38.297Z,96732.94
2023-04-12T04:47:08.579Z,96738.56
2023-04-12T04:49:36.974Z,96723.59
2023-04-12T04:52:13.157Z,96734.28
2023-04-12T04:54:41.567Z,96731.50
2023-04-12T04:57:11.630Z,96739.53
2023-04-12T04:59:40.920Z,96729.78
2023-04-12T05:02:18.525Z,96736.06
2023-04-12T05:04:46.272Z,96748.66
2023-04-12T05:07:18.840Z,96735.94
2023-04-12T05:09:48.676Z,96732.91
2023-04-12T05:12:17.551Z,96727.53
2023-04-12T05:14:51.841Z,96729.41
2023-04-12T05:17:19.776Z,96725.47
2023-04-12T05:19:47.698Z,96718.00
2023-04-12T05:22:22.568Z,96716.06
2023-04-12T05:24:51.591Z,96719.78
2023-04-12T05:27:19.127Z,96720.69
2023-04-12T05:29:48.601Z,96721.34
2023-04-12T05:32:19.105Z,96729.69
2023-04-12T05:34:47.705Z,96722.06
2023-04-12T05:37:15.407Z,96724.78
2023-04-12T05:39:43.651Z,96732.34
2023-04-12T05:42:12.508Z,96713.56
2023-04-12T05:44:40.438Z,96718.56
2023-04-12T05:47:12.207Z,96709.63
2023-04-12T05:49:39.913Z,96697.06
2023-04-12T05:52:10.476Z,96688.25
2023-04-12T05:54:38.114Z,96688.72
2023-04-12T05:57:07.320Z,96680.78
2023-04-12T05:59:36.337Z,96670.66
2023-04-12T06:02:03.982Z,96682.69
2023-04-12T06:04:48.857Z,96678.53
2023-04-12T06:07:19.213Z,96681.09
2023-04-12T06:09:47.361Z,96664.88
2023-04-12T06:12:14.981Z,96654.72
2023-04-12T06:14:43.855Z,96657.84
2023-04-12T06:17:11.679Z,96659.13
2023-04-12T06:19:40.897Z,96657.84
2023-04-12T06:22:08.426Z,96648.97
2023-04-12T06:24:36.774Z,96645.69
2023-04-12T06:27:04.488Z,96643.34
2023-04-12T06:29:32.991Z,96645.41
2023-04-12T06:32:01.899Z,96642.13
2023-04-12T06:34:29.866Z,96636.47
2023-04-12T06:37:02.028Z,96632.25
2023-04-12T06:39:29.513Z,96634.19
2023-04-12T06:41:57.592Z,96613.91
2023-04-12T06:44:26.274Z,96602.59
2023-04-12T06:46:53.851Z,96611.41
2023-04-12T06:49:22.929Z,96602.06
2023-04-12T06:51:50.367Z,96588.72
2023-04-12T06:54:17.964Z,96594.66
2023-04-12T06:56:45.474Z,96597.72
2023-04-12T06:59:12.990Z,96580.50
2023-04-12T07:01:41.934Z,96594.09
2023-04-12T07:04:10.902Z,96585.00
2023-04-12T07:06:40.060Z,96581.00
2023-04-12T07:09:07.541Z,96569.09
2023-04-12T07:11:35.529Z,96567.56
2023-04-12T07:14:03.072Z,96567.03
2023-04-12T07:16:31.075Z,96561.56
2023-04-12T07:18:58.958Z,96561.22
2023-04-12T07:21:27.559Z,96556.97
2023-04-12T07:23:56.716Z,96558.00
2023-04-12T07:26:24.300Z,96546.81
2023-04-12T07:28:51.814Z,96538.72
2023-04-12T07:31:19.458Z,96518.31
2023-04-12T07:33:47.031Z,96524.22
2023-04-12T07:36:16.621Z,96522.19
2023-04-12T07:38:44.256Z,96528.31
2023-04-12T07:41:13.169Z,96517.94
2023-04-12T07:43:40.674Z,96518.38
2023-04-12T07:46:08.844Z,96511.22
2023-04-12T07:48:36.646Z,96508.56
2023-04-12T07:51:04.641Z,96498.56
2023-04-12T07:53:32.232Z,96502.47
2023-04-12T07:55:59.762Z,96487.59
2023-04-12T07:58:28.661Z,96495.97
2023-04-12T08:00:59.185Z,96496.16
2023-04-12T08:03:28.215Z,96487.56
2023-04-12T08:05:55.811Z,96487.56
2023-04-12T08:08:23.768Z,96493.50
2023-04-12T08:10:52.515Z,96474.31
2023-04-12T08:13:20.724Z,96483.47
2023-04-12T08:15:51.540Z,96481.63
2023-04-12T08:18:19.307Z,96477.72
2023-04-12T08:20:49.123Z,96473.66
2023-04-12T08:23:16.801Z,96483.47
2023-04-12T08:25:44.300Z,96471.78
2023-04-12T08:28:12.337Z,96478.56
2023-04-12T08:30:39.900Z,96475.66
2023-04-12T08:33:08.721Z,96456.44
2023-04-12T08:35:36.256Z,96464.38
2023-04-12T08:38:07.629Z,96463.34
2023-04-12T08:40:35.215Z,96441.44
2023-04-12T08:43:04.425Z,96447.38
2023-04-12T08:45:33.183Z,96444.50
2023-04-12T08:48:01.544Z,96439.38
2023-04-12T08:50:30.607Z,96435.50
2023-04-12T08:52:59.454Z,96455.09
2023-04-12T08:55:27.143Z,96436.88
2023-04-12T08:57:55.992Z,96438.16
2023-04-12T09:00:23.676Z,96429.56
2023-04-12T09:02:51.650Z,96433.41
2023-04-12T09:05:19.387Z,96429.69
2023-04-12T09:07:48.322Z,96419.63
2023-04-12T09:10:31.282Z,96422.97
2023-04-12T09:12:58.832Z,96413.72
2023-04-12T09:15:26.345Z,96402.25
2023-04-12T09:18:04.792Z,96379.59
2023-04-12T09:20:32.493Z,96392.88
2023-04-12T09:23:02.863Z,96399.00
2023-04-12T09:25:44.673Z,96404.47
2023-04-12T09:28:24.200Z,96383.53
2023-04-12T09:30:52.934Z,96370.47
2023-04-12T09:33:21.390Z,96369.84
2023-04-12T09:35:49.335Z,96364.44
2023-04-12T09:38:18.223Z,96367.47
2023-04-12T09:40:45.922Z,96317.69
2023-04-12T09:43:13.450Z,96348.63
2023-04-12T09:45:41.085Z,96343.34
2023-04-12T09:48:08.983Z,96356.66
2023-04-12T09:50:36.680Z,96355.25
2023-04-12T09:53:06.198Z,96333.28
2023-04-12T09:55:35.120Z,96351.72
2023-04-12T09:58:04.976Z,96338.78
2023-04-12T10:00:34.360Z,96329.88
2023-04-12T10:03:03.014Z,96324.97
2023-04-12T10:05:31.096Z,96330.78
2023-04-12T10:08:01.541Z,96332.38
2023-04-12T10:10:31.718Z,96306.25
2023-04-12T10:13:02.166Z,96320.09
2023-04-12T10:15:30.449Z,96321.38
2023-04-12T10:18:03.632Z,96310.91
2023-04-12T10:20:31.495Z,96300.22
2023-04-12T10:23:02.112Z,96290.44
2023-04-12T10:25:31.588Z,96294.41
2023-04-12T10:28:14.524Z,96280.66
2023-04-12T10:30:42.231Z,96262.84
2023-04-12T10:33:14.600Z,96274.81
2023-04-12T10:35:51.786Z,96267.94
2023-04-12T10:38:19.837Z,96272.28
2023-04-12T10:41:13.582Z,96253.28
2023-04-12T10:43:43.395Z,96275.63
2023-04-12T10:46:44.379Z,96263.56
2023-04-12T10:49:12.529Z,96271.94
2023-04-12T10:51:40.578Z,96264.38
2023-04-12T10:54:35.150Z,96260.19
2023-04-12T10:57:04.039Z,96258.19
2023-04-12T10:59:57.479Z,96251.19
2023-04-12T11:02:25.376Z,96252.31
2023-04-12T11:05:10.014Z,96250.50
2023-04-12T11:07:56.234Z,96245.63
2023-04-12T11:10:42.402Z,96244.00
2023-04-12T11:13:17.097Z,96247.69
2023-04-12T11:15:46.006Z,96243.59
2023-04-12T11:18:13.614Z,96239.13
2023-04-12T11:20:41.385Z,96239.13
2023-04-12T11:23:11.296Z,96227.31
2023-04-12T11:25:39.092Z,96222.22
2023-04-12T11:28:17.296Z,96227.69
2023-04-12T11:30:54.617Z,96227.31
2023-04-12T11:33:35.324Z,96215.84
2023-04-12T11:36:05.753Z,96212.38
2023-04-12T11:38:33.532Z,96217.47
2023-04-12T11:41:01.050Z,96211.97
2023-04-12T11:43:28.714Z,96220.69
2023-04-12T11:46:00.830Z,96219.06
2023-04-12T11:48:28.771Z,96201.69
2023-04-12T11:51:07.665Z,96215.75
2023-04-12T11:53:38.130Z,96206.13
2023-04-12T11:56:06.145Z,96210.97
2023-04-12T11:58:33.908Z,96211.63
2023-04-12T12:01:03.005Z,96198.97
2023-04-12T12:03:31.070Z,96193.00
2023-04-12T12:05:59.568Z,96196.66
2023-04-12T12:08:27.370Z,96195.78
2023-04-12T12:11:06.988Z,96179.63
2023-04-12T12:13:45.697Z,96177.13
2023-04-12T12:16:14.729Z,96168.88
2023-04-12T12:18:42.320Z,96179.50
2023-04-12T12:21:10.851Z,96161.13
2023-04-12T12:23:38.976Z,96165.50
2023-04-12T12:26:18.612Z,96158.50
2023-04-12T12:28:50.760Z,96156.28
2023-04-12T12:31:21.937Z,96139.00
2023-04-12T12:33:52.402Z,96146.09
2023-04-12T12:36:20.868Z,96149.56
2023-04-12T12:38:49.174Z,96147.03
2023-04-12T12:41:18.133Z,96124.47
2023-04-12T12:43:46.932Z,96122.13
2023-04-12T12:46:14.770Z,96107.78
2023-04-12T12:48:43.936Z,96090.94
2023-04-12T12:51:12.169Z,96103.66
2023-04-12T12:53:40.742Z,96106.47
2023-04-12T12:56:10.090Z,96078.28
2023-04-12T12:58:40.709Z,96092.91
2023-04-12T13:01:08.796Z,96097.44
2023-04-12T13:03:36.682Z,96100.53
2023-04-12T13:06:06.081Z,96080.28
2023-04-12T13:08:36.555Z,96085.97
2023-04-12T13:11:04.085Z,96074.69
2023-04-12T13:13:31.750Z,96075.28
2023-04-12T13:15:59.326Z,96072.31
2023-04-12T13:18:27.710Z,96068.72
2023-04-12T13:20:55.261Z,96052.81
2023-04-12T13:23:24.077Z,96038.06
2023-04-12T13:25:53.037Z,96030.50
2023-04-12T13:28:20.889Z,96038.47
2023-04-12T13:30:49.310Z,96039.59
2023-04-12T13:33:20.103Z,96030.56
2023-04-12T13:35:49.172Z,96039.81
2023-04-12T13:38:16.651Z,96033.09
2023-04-12T13:40:45.479Z,96030.28
2023-04-12T13:43:13.046Z,96048.53
2023-04-12T13:45:40.688Z,96041.63
2023-04-12T13:48:08.331Z,96022.53
2023-04-12T13:50:36.096Z,96035.38
2023-04-12T13:53:03.589Z,96026.28
2023-04-12T13:55:31.087Z,96019.47
2023-04-12T13:57:59.987Z,96022.72
2023-04-12T14:00:27.656Z,96008.50
2023-04-12T14:02:55.598Z,96015.44
2023-04-12T14:05:23.298Z,96003.75
2023-04-12T14:07:52.462Z,96004.13
2023-04-12T14:10:19.925Z,96013.00
2023-04-12T14:12:47.429Z,96012.72
2023-04-12T14:15:16.432Z,96024.41
2023-04-12T14:17:43.980Z,96026.88
2023-04-12T14:20:12.573Z,96023.38
2023-04-12T14:22:40.096Z,96013.78
2023-04-12T14:25:09.319Z,96001.97
2023-04-12T14:27:36.973Z,96009.94
2023-04-12T14:30:06.219Z,96002.41
2023-04-12T14:32:35.468Z,96012.25
2023-04-12T14:35:04.187Z,96022.53
2023-04-12T14:37:32.796Z,96013.16
2023-04-12T14:40:00.334Z,96025.19
2023-04-12T14:42:27.867Z,96016.97
2023-04-12T14:44:55.370Z,96022.53
2023-04-12T14:47:22.885Z,96007.94
2023-04-12T14:49:51.778Z,96006.09
2023-04-12T14:52:19.634Z,96002.41
2023-04-12T14:54:47.171Z,95991.31
2023-04-12T14:57:14.914Z,96005.19
2023-04-12T14:59:42.521Z,96002.31
2023-04-12T15:02:10.171Z,96004.38
2023-04-12T15:04:38.141Z,95996.97
2023-04-12T15:07:07.024Z,96001.84
2023-04-12T15:09:34.959Z,95995.06
2023-04-12T15:12:02.521Z,95976.97
2023-04-12T15:14:30.050Z,95977.13
2023-04-12T15:16:57.755Z,95984.41
2023-04-12T15:19:25.616Z,95975.53
2023-04-12T15:21:55.035Z,95986.06
2023-04-12T15:24:24.443Z,95972.97
2023-04-12T15:26:55.375Z,95959.06
2023-04-12T15:29:24.257Z,95975.63
2023-04-12T15:31:51.809Z,95959.41
2023-04-12T15:34:19.518Z,95967.88
2023-04-12T15:36:47.118Z,95951.16
2023-04-12T15:39:14.960Z,95961.25
2023-04-12T15:41:43.966Z,95963.00
2023-04-12T15:44:13.433Z,95936.94
2023-04-12T15:46:42.033Z,95933.25
2023-04-12T15:49:10.163Z,95933.09
2023-04-12T15:51:38.428Z,95940.06
2023-04-12T15:54:06.755Z,95946.88
2023-04-12T15:56:35.384Z,95937.50
2023-04-12T15:59:04.467Z,95938.19
2023-04-12T16:01:32.065Z,95931.34
2023-04-12T16:04:00.017Z,95918.63
2023-04-12T16:06:30.280Z,95927.16
2023-04-12T16:08:58.179Z,95912.25
2023-04-12T16:11:26.430Z,95929.38
2023-04-12T16:13:54.942Z,95934.03
2023-04-12T16:16:24.480Z,95917.69
2023-04-12T16:18:53.079Z,95919.78
2023-04-12T16:21:22.209Z,95926.50
2023-04-12T16:23:51.135Z,95928.94
2023-04-12T16:26:21.465Z,95915.63
2023-04-12T16:28:49.262Z,95928.50
2023-04-12T16:31:16.893Z,95925.81
2023-04-12T16:33:45.876Z,95920.50
2023-04-12T16:36:13.731Z,95925.22
2023-04-12T16:38:41.247Z,95917.31
2023-04-12T16:41:08.756Z,95917.44
2023-04-12T16:43:36.356Z,95916.63
2023-04-12T16:46:05.912Z,95920.91
2023-04-12T16:48:33.823Z,95917.22
2023-04-12T16:51:04.721Z,95914.78
2023-04-12T16:53:32.285Z,95907.81
2023-04-12T16:56:02.651Z,95916.25
2023-04-12T16:58:31.397Z,95902.94
2023-04-12T17:00:58.876Z,95903.53
2023-04-12T17:03:26.587Z,95892.44
2023-04-12T17:05:54.326Z,95897.41
2023-04-12T17:08:23.147Z,95887.56
2023-04-12T17:10:50.856Z,95883.75
2023-04-12T17:13:20.404Z,95885.38
2023-04-12T17:15:48.718Z,95877.63
2023-04-12T17:18:16.436Z,95888.03
2023-04-12T17:20:44.199Z,95884.31
2023-04-12T17:23:12.353Z,95879.81
2023-04-12T17:25:41.658Z,95878.53
2023-04-12T17:28:09.478Z,95875.88
2023-04-12T17:30:37.247Z,95878.53
2023-04-12T17:33:07.277Z,95867.69
2023-04-12T17:35:34.910Z,95857.25
2023-04-12T17:38:02.426Z,95876.91
2023-04-12T17:40:31.254Z,95873.44
2023-04-12T17:43:00.263Z,95875.88
2023-04-12T17:45:28.591Z,95886.75
2023-04-12T17:47:56.269Z,95887.78
2023-04-12T17:50:24.102Z,95888.03
2023-04-12T17:52:51.728Z,95882.47
2023-04-12T17:55:23.426Z,95887.13
2023-04-12T17:57:51.086Z,95869.97
2023-04-12T18:00:21.774Z,95879.00
2023-04-12T18:02:50.090Z,95876.25
2023-04-12T18:05:17.773Z,95865.22
2023-04-12T18:07:45.276Z,95864.19
2023-04-12T18:10:17.782Z,95889.56
2023-04-12T18:12:46.472Z,95878.09
2023-04-12T18:15:14.045Z,95897.53
2023-04-12T18:17:43.013Z,95891.63
2023-04-12T18:20:11.998Z,95900.66
2023-04-12T18:22:39.665Z,95902.88
2023-04-12T18:25:08.060Z,95900.22
2023-04-12T18:27:35.646Z,95897.31
2023-04-12T18:30:03.442Z,95888.84
2023-04-12T18:32:35.140Z,95881.91
2023-04-12T18:35:04.923Z,95870.47
2023-04-12T18:37:32.502Z,95840.00
2023-04-12T18:40:00.421Z,95811.75
2023-04-12T18:42:27.962Z,95807.84
2023-04-12T18:44:56.552Z,95828.19
2023-04-12T18:47:24.216Z,95839.53
2023-04-12T18:49:51.698Z,95862.47
2023-04-12T18:52:20.638Z,95885.88
2023-04-12T18:54:48.402Z,95895.59
2023-04-12T18:57:18.505Z,95899.16
2023-04-12T18:59:47.857Z,95892.81
2023-04-12T19:02:16.006Z,95887.16
2023-04-12T19:04:43.549Z,95902.31
2023-04-12T19:07:11.298Z,95899.06
2023-04-12T19:09:40.440Z,95909.13
2023-04-12T19:12:08.404Z,95913.28
2023-04-12T19:14:36.127Z,95927.88
2023-04-12T19:17:04.106Z,95930.91
2023-04-12T19:19:31.738Z,95938.06
2023-04-12T19:21:59.196Z,95939.81
2023-04-12T19:24:26.686Z,95940.25
2023-04-12T19:26:56.062Z,95947.13
2023-04-12T19:29:24.294Z,95949.09
2023-04-12T19:31:53.675Z,95956.41
2023-04-12T19:34:21.421Z,95953.63
2023-04-12T19:36:49.581Z,95952.44
2023-04-12T19:39:18.523Z,95963.44
2023-04-12T19:41:48.489Z,95957.78
2023-04-12T19:44:17.295Z,95968.16
2023-04-12T19:46:44.888Z,95955.53
2023-04-12T19:49:13.341Z,95965.13
2023-04-12T19:51:40.883Z,95954.72
2023-04-12T19:54:09.936Z,95962.69
2023-04-12T19:56:37.698Z,95956.44
2023-04-12T19:59:06.786Z,95947.69
2023-04-12T20:01:43.083Z,95954.44
2023-04-12T20:04:10.754Z,95960.22
2023-04-12T20:06:38.705Z,95958.28
2023-04-12T20:09:06.182Z,95961.03
2023-04-12T20:11:33.731Z,95959.13
2023-04-12T20:14:01.225Z,95972.81
2023-04-12T20:16:28.925Z,95981.78
2023-04-12T20:18:59.016Z,95992.78
2023-04-12T20:21:27.838Z,95991.25
2023-04-12T20:23:55.315Z,95991.25
2023-04-12T20:26:23.008Z,95991.28
2023-04-12T20:28:50.815Z,95977.13
2023-04-12T20:31:19.411Z,95977.88
2023-04-12T20:33:47.014Z,95984.47
2023-04-12T20:36:15.898Z,95989.69
2023-04-12T20:38:43.616Z,95991.50
2023-04-12T20:41:11.609Z,95989.28
2023-04-12T20:43:43.585Z,95983.34
2023-04-12T20:46:15.546Z,95984.81
2023-04-12T20:48:43.326Z,95970.97
2023-04-12T20:51:13.624Z,95960.31
2023-04-12T20:53:43.621Z,95970.16
2023-04-12T20:56:11.086Z,95966.47
2023-04-12T20:58:38.798Z,95960.97
2023-04-12T21:01:07.340Z,95970.00
2023-04-12T21:03:36.501Z,95959.34
2023-04-12T21:06:06.749Z,95956.09
2023-04-12T21:08:34.495Z,95970.81
2023-04-12T21:11:03.639Z,95986.31
2023-04-12T21:13:31.534Z,95975.22
2023-04-12T21:16:01.173Z,95951.53
2023-04-12T21:18:28.840Z,95957.94
2023-04-12T21:20:59.530Z,95965.19
2023-04-12T21:23:27.866Z,95958.97
2023-04-12T21:25:56.071Z,95965.78
2023-04-12T21:28:24.953Z,95974.19
2023-04-12T21:30:55.048Z,95991.78
2023-04-12T21:33:25.053Z,95980.25
2023-04-12T21:35:54.369Z,95970.94
2023-04-12T21:38:22.372Z,95975.59
2023-04-12T21:40:49.975Z,95988.50
2023-04-12T21:43:17.554Z,95985.94
2023-04-12T21:45:46.628Z,95992.59
2023-04-12T21:48:14.654Z,96006.41
2023-04-12T21:50:42.428Z,96001.94
2023-04-12T21:53:10.017Z,96008.66
2023-04-12T21:55:37.701Z,96013.56
2023-04-12T21:58:05.270Z,96014.16
2023-04-12T22:00:33.021Z,96005.16
2023-04-12T22:03:02.123Z,95998.00
2023-04-12T22:05:30.227Z,96013.13
2023-04-12T22:07:57.787Z,96018.78
2023-04-12T22:10:25.682Z,96019.56
2023-04-12T22:12:53.965Z,96020.63
2023-04-12T22:15:21.712Z,96019.50
2023-04-12T22:17:49.316Z,96020.16
2023-04-12T22:20:18.316Z,96020.13
2023-04-12T22:22:45.852Z,96030.97
2023-04-12T22:25:15.309Z,96025.94
2023-04-12T22:27:46.642Z,96036.44
2023-04-12T22:30:14.658Z,96039.31
2023-04-12T22:32:42.412Z,96046.06
2023-04-12T22:35:10.685Z,96056.09
2023-04-12T22:37:41.082Z,96053.91
2023-04-12T22:40:12.214Z,96053.28
2023-04-12T22:42:45.924Z,96056.84
2023-04-12T22:45:13.877Z,96060.31
2023-04-12T22:47:42.530Z,96051.22
2023-04-12T22:50:11.105Z,96062.28
2023-04-12T22:52:40.355Z,96073.81
2023-04-12T22:55:09.319Z,96067.59
2023-04-12T22:57:37.097Z,96072.78
2023-04-12T23:00:06.260Z,96074.84
2023-04-12T23:02:34.788Z,96075.91
2023-04-12T23:05:02.892Z,96071.03
2023-04-12T23:07:31.267Z,96072.47
2023-04-12T23:10:01.982Z,96073.50
2023-04-12T23:12:30.414Z,96074.78
2023-04-12T23:14:57.969Z,96076.56
2023-04-12T23:17:26.794Z,96081.66
2023-04-12T23:19:54.418Z,96089.03
2023-04-12T23:22:48.428Z,96095.28
2023-04-12T23:25:38.866Z,96085.97
2023-04-12T23:28:13.397Z,96096.84
2023-04-12T23:30:44.033Z,96104.22
2023-04-12T23:33:11.957Z,96105.78
2023-04-12T23:35:40.081Z,96093.53
2023-04-12T23:38:08.447Z,96092.28
2023-04-12T23:40:37.293Z,96100.88
2023-04-12T23:43:04.811Z,96096.78
2023-04-12T23:45:32.323Z,96111.63
2023-04-12T23:48:00.025Z,96116.88
2023-04-12T23:50:27.821Z,96112.00
2023-04-12T23:52:55.284Z,96114.22
2023-04-12T23:55:22.786Z,96119.94
2023-04-12T23:57:51.825Z,96115.03
